Tiempo atmosférico en la estación meteorológica de Badajoz, Badajoz (175 m.)



Fecha
DESCASC
Temp. máxima en grados centígrados (hora)
DESCASC
Temp. mínima en grados centígrados (hora)
DESCASC
Temp. media en grados centígrados
DESCASC
Racha de viento máxima en m/sg (hora)
DESCASC
Velocidad máxima media en intervalos de 10 minutos(hora)
DESCASC
Precipitaciones diarias en mm
DESCASC
Precipitaciones de 00:00 a 06:00 en mm
DESCASC
Precipitaciones de 06:00 a 12:00 en mm
DESCASC
Precipitaciones de 12:00 a 18:00 en mm
DESCASC
Precipitaciones de 18:00 a 24:00 en mm
DESCASC
23-06-2019 31.5 (16:10) 15.5 (07:00) 23.5 9.17 (21:20) 6.11 (19:30) 0 0 0 0 0
22-06-2019 34.5 (18:20) 13.4 (07:20) 23.9 10.83 (15:30) 5.56 (21:20) 0 0 0 0 0
21-06-2019 33 (17:10) 14 (06:30) 23.5 10.28 (23:40) 5.56 (21:40) 0 0 0 0 0
20-06-2019 29.1 (17:30) 14.6 (00:00) 21.9 10 (19:30) 5.83 (23:50) 0 0 0 0 0
19-06-2019 26.3 (17:20) 16.7 (00:00) 21.5 8.89 (15:40) 5.28 (11:20) 0 0 0 0 0
18-06-2019 28.4 (16:40) 12.9 (00:00) 20.6 11.39 (16:00) 6.39 (17:30) 0 0 0 0 0
17-06-2019 32.2 (18:00) 11.1 (00:00) 21.7 9.44 (18:10) 5.28 (18:10) 0 0 0 0 0
16-06-2019 32 (18:30) 10.8 (00:00) 21.4 8.61 (23:10) 5.56 (23:10) 0 0 0 0 0
15-06-2019 28.8 (18:20) 10.6 (00:00) 19.7 7.5 (14:10) 4.17 (23:20) 0 0 0 0 0
14-06-2019 23.4 (17:00) 10.4 (00:00) 16.9 12.22 (14:20) 6.94 (00:10) 0 0 0 0 0
13-06-2019 28.7 (17:50) 9.4 (00:00) 19.1 11.67 (23:59) 6.94 (23:40) 0 0 0 0 0
12-06-2019 30.9 (17:10) 10.9 (00:00) 20.9 10.56 (22:20) 6.11 (22:20) 0 0 0 0 0
11-06-2019 29.7 (16:30) 12.5 (00:00) 21.1 11.94 (18:00) 6.67 (12:10) 0 0 0 0 0
10-06-2019 30.2 (17:00) 12.2 (00:00) 21.2 11.11 (20:10) 6.39 (19:50) 0 0 0 0 0
09-06-2019 28.6 (16:40) 9.9 (00:00) 19.3 11.11 (19:50) 6.11 (18:40) 0 0 0 0 0
08-06-2019 30.1 (18:40) 8.2 (00:00) 19.2 11.67 (23:50) 6.67 (23:50) 0 0 0 0 0
07-06-2019 26 (18:20) 9.7 (00:00) 17.8 8.06 (15:00) 4.17 (17:00) 0.2 0.2 0 0 0
06-06-2019 24.9 (17:40) 9.1 (00:00) 17 13.06 (20:10) 7.5 (20:10) 0.4 0 0 0 0.4
05-06-2019 24.7 (17:10) 11.6 (00:00) 18.2 13.61 (14:10) 6.39 (15:50) 0 0 0 0 0
04-06-2019 26.9 (15:40) 15.9 (00:00) 21.4 15.28 (17:30) 9.72 (17:20) 0 0 0 0 0
03-06-2019 35.3 (16:40) 16.4 (00:00) 25.8 10 (23:40) 6.11 (23:40) 0 0 0 0 0
02-06-2019 38.4 (18:30) 19.2 (00:00) 28.8 9.72 (19:40) 5.83 (19:50) 0 0 0 0 0
01-06-2019 37.6 (17:00) 18.2 (00:00) 27.9 7.22 (01:20) 3.33 (17:10) 0 0 0 0 0
31-05-2019 36.5 (16:40) 14.5 (00:00) 25.5 7.5 (17:50) 3.61 (17:10) 0 0 0 0 0
30-05-2019 35.4 (18:20) 15.1 (00:00) 25.3 8.89 (12:40) 4.44 (12:40) 0 0 0 0 0
29-05-2019 33.3 (18:10) 17.7 (00:00) 25.5 9.17 (11:40) 5.28 (08:40) 0 0 0 0 0
28-05-2019 36.1 (16:00) 13.7 (00:00) 24.9 10 (17:40) 6.11 (20:40) 0 0 0 0 0
27-05-2019 35 (15:50) 14.9 (00:00) 24.9 10.83 (19:20) 6.39 (19:40) 0 0 0 0 0
26-05-2019 34.4 (17:00) 13.5 (00:00) 24 11.67 (17:10) 6.39 (17:20) 0 0 0 0 0

Gráficas

Temp. máximas Temp. mínimas Temp. medias Precipitaciones Rachas de viento máximas Velocidades máximas media en intervalos de 10 minutos

Datos horarios

Fecha y hora oficial Temperatura (ºC) Velocidad del viento (km/h) Dirección del viento Racha (km/h) Dirección de racha Precipitación (mm) Presión (hPa) Tendencia (hPa) Humedad (%)
2019-06-24 23:00:00 21.1 6 Norte 20 Noroeste 0 -- -- 51
2019-06-24 22:00:00 22.6 11 Noroeste 23 Noroeste 0 -- -- 47
2019-06-24 21:00:00 23.6 12 Noroeste 33 Noroeste 0 -- -- 46
2019-06-24 20:00:00 24.9 14 Noroeste 28 Norte 0 -- -- 41
2019-06-24 19:00:00 25 17 Noroeste 35 Norte 0 -- -- 40
2019-06-24 18:00:00 28.3 23 Noroeste 39 Noroeste 0 -- -- 37
2019-06-24 17:00:00 27.1 17 Noroeste 30 Noroeste 0 -- -- 49
2019-06-24 16:00:00 25.4 18 Noroeste 36 Noroeste 0 -- -- 56
2019-06-24 15:00:00 26.7 17 Noroeste 29 Noroeste 0 -- -- 58
2019-06-24 14:00:00 26.9 11 Noroeste 23 Sudoeste 0 -- -- 56
2019-06-24 13:00:00 28.1 10 Sudoeste 19 Sur 0 -- -- 54
2019-06-24 12:00:00 27.1 7 Sudoeste 17 Sudoeste 0 -- -- 58
2019-06-24 11:00:00 25 6 Sur 14 Sur 0 -- -- 66
2019-06-24 10:00:00 22.2 4 Sur 11 Sudoeste 0 -- -- 77
2019-06-24 09:00:00 20.7 6 Sudoeste 10 Oeste 0 -- -- 83
2019-06-24 08:00:00 20.6 4 Sudoeste 8 Sudoeste 0 -- -- 82
2019-06-24 07:00:00 20.1 2 Sudoeste 6 Noroeste 0 -- -- 82
2019-06-24 06:00:00 20.7 4 Oeste 8 Oeste 0 -- -- 80
2019-06-24 05:00:00 21.2 4 Oeste 9 Noroeste 0 -- -- 79
2019-06-24 04:00:00 21.5 5 Noroeste 9 Noroeste 0 -- -- 77
2019-06-24 03:00:00 21.9 3 Oeste 10 Oeste 0 -- -- 75
2019-06-24 02:00:00 22.4 8 Noroeste 19 Oeste 0 -- -- 74
2019-06-24 01:00:00 23.1 6 Oeste 21 Oeste 0 -- -- 70
2019-06-24 00:00:00 24.1 12 Noroeste 21 Noroeste 0 -- -- 65
2019-06-23 23:00:00 25.2 9 Noroeste 22 Noroeste 0 -- -- 59
2019-06-23 22:00:00 26.1 15 Noroeste 33 Oeste 0 -- -- 56
2019-06-23 21:00:00 27.1 18 Noroeste 30 Oeste 0 -- -- 53
2019-06-23 20:00:00 27.4 18 Noroeste 33 Noroeste 0 -- -- 51
2019-06-23 19:00:00 29.6 14 Noroeste 25 Noroeste 0 -- -- 40
2019-06-23 18:00:00 30.4 9 Oeste 20 Oeste 0 -- -- 30
2019-06-23 17:00:00 30.7 9 Sur 24 Sudoeste 0 -- -- 25
2019-06-23 16:00:00 31.2 13 Sudoeste 28 Sudoeste 0 -- -- 19
2019-06-23 15:00:00 30 13 Sudoeste 24 Oeste 0 -- -- 24
2019-06-23 14:00:00 29.2 11 Sudoeste 20 Sudoeste 0 -- -- 27
2019-06-23 13:00:00 27.4 9 Sur 20 Sur 0 -- -- 32
2019-06-23 12:00:00 25.4 6 Sudoeste 12 Sur 0 -- -- 37
2019-06-23 11:00:00 22.8 3 Sudoeste 14 Sur 0 -- -- 44
2019-06-23 10:00:00 20 3 Sur 9 Sur 0 -- -- 54
2019-06-23 09:00:00 17.6 4 Sur 13 Oeste 0 -- -- 59
2019-06-23 08:00:00 15.8 6 Oeste 13 Sudoeste 0 -- -- 62
2019-06-23 07:00:00 15.5 8 Sudoeste 13 Oeste 0 -- -- 60
2019-06-23 06:00:00 16.1 5 Sudoeste 9 Sur 0 -- -- 56
2019-06-23 05:00:00 15.9 3 Sur 5 Sur 0 -- -- 54
2019-06-23 04:00:00 17.5 2 Sur 7 Sur 0 -- -- 48
2019-06-23 03:00:00 18.3 3 Noroeste 8 Oeste 0 -- -- 42
2019-06-23 02:00:00 20.8 3 Sudoeste 8 Sudoeste 0 -- -- 38
2019-06-23 01:00:00 23 5 Sudoeste 18 Sudoeste 0 -- -- 34
2019-06-23 00:00:00 23.8 5 Sudoeste 23 Oeste 0 -- -- 27
2019-06-22 23:00:00 25.2 13 Noroeste 26 Noroeste 0 -- -- 27
2019-06-22 22:00:00 27.4 18 Noroeste 33 Noroeste 0 -- -- 25
2019-06-22 21:00:00 29.8 17 Noroeste 26 Noroeste 0 -- -- 20
2019-06-22 20:00:00 32.1 12 Oeste 28 Sudoeste 0 -- -- 18
2019-06-22 19:00:00 33.7 15 Sudoeste 29 Sudoeste 0 -- -- 18
2019-06-22 18:00:00 34.3 13 Sudoeste 27 Oeste 0 -- -- 18
2019-06-22 17:00:00 34 15 Sudoeste 32 Sur 0 -- -- 19
2019-06-22 16:00:00 32.9 18 Sudoeste 39 Oeste 0 -- -- 22
2019-06-22 15:00:00 32.2 17 Sudoeste 32 Sudoeste 0 -- -- 21
2019-06-22 14:00:00 30.7 10 Sudoeste 24 Sudoeste 0 -- -- 25
2019-06-22 13:00:00 28.4 7 Sudoeste 17 Sudoeste 0 -- -- 28
2019-06-22 12:00:00 25.6 6 Sudoeste 13 Sudoeste 0 -- -- 37
2019-06-22 11:00:00 22.8 5 Sudoeste 13 Oeste 0 -- -- 48
2019-06-22 10:00:00 20.1 4 Sudoeste 7 Sudoeste 0 -- -- 56
2019-06-22 09:00:00 16.7 0 Calma 9 Sur 0 -- -- 69
2019-06-22 08:00:00 14.5 4 Sur 7 Sur 0 -- -- 76
2019-06-22 07:00:00 13.9 0 Calma 6 Sur 0 -- -- 65
2019-06-22 06:00:00 15.2 3 Sur 6 Oeste 0 -- -- 69
2019-06-22 05:00:00 15.9 6 Noroeste 10 Oeste 0 -- -- 66
2019-06-22 04:00:00 17.3 4 Noroeste 16 Noroeste 0 -- -- 61
2019-06-22 03:00:00 18.6 7 Oeste 13 Noroeste 0 -- -- 60
2019-06-22 02:00:00 19.2 8 Oeste 22 Noroeste 0 -- -- 58
2019-06-22 01:00:00 20.3 16 Noroeste 28 Oeste 0 -- -- 53
2019-06-22 00:00:00 21.8 15 Noroeste 37 Noroeste 0 -- -- 51
2019-06-21 23:00:00 23.5 15 Noroeste 28 Noroeste 0 -- -- 46
2019-06-21 22:00:00 25.7 18 Noroeste 33 Noroeste 0 -- -- 39
2019-06-21 21:00:00 28.2 17 Noroeste 30 Noroeste 0 -- -- 33
2019-06-21 20:00:00 31.1 19 Noroeste 31 Noroeste 0 -- -- 30
2019-06-21 19:00:00 32.3 13 Oeste 26 Oeste 0 -- -- 26
2019-06-21 18:00:00 32.6 11 Noroeste 27 Oeste 0 -- -- 27
2019-06-21 17:00:00 32.5 11 Noroeste 27 Noroeste 0 -- -- 27
2019-06-21 16:00:00 32.2 13 Oeste 22 Norte 0 -- -- 28
2019-06-21 15:00:00 30 7 Noroeste 22 Oeste 0 -- -- 32
2019-06-21 14:00:00 29 5 Norte 22 Sur 0 -- -- 37
2019-06-21 13:00:00 25.9 10 Sur 20 Sur 0 -- -- 46
2019-06-21 12:00:00 23.8 8 Sudoeste 18 Sudoeste 0 -- -- 50
2019-06-21 11:00:00 21.7 8 Oeste 18 Noroeste 0 -- -- 56
2019-06-21 10:00:00 18.9 10 Noroeste 20 Noroeste 0 -- -- 65
2019-06-21 09:00:00 16.6 10 Oeste 22 Oeste 0 -- -- 73
2019-06-21 08:00:00 14.7 5 Sudoeste 22 Oeste 0 -- -- 80
2019-06-21 07:00:00 14 9 Oeste 18 Oeste 0 -- -- 83
2019-06-21 06:00:00 14.2 9 Oeste 19 Oeste 0 -- -- 82
2019-06-21 05:00:00 14.5 7 Oeste 19 Noroeste 0 -- -- 81
2019-06-21 04:00:00 14.7 9 Oeste 20 Oeste 0 -- -- 81
2019-06-21 03:00:00 15.2 9 Oeste 26 Oeste 0 -- -- 79
2019-06-21 02:00:00 16.1 12 Oeste 26 Oeste 0 -- -- 73
2019-06-21 01:00:00 17.4 13 Noroeste 31 Oeste 0 -- -- 67
2019-06-21 00:00:00 18.7 18 Noroeste 36 Oeste 0 -- -- 61
2019-06-20 23:00:00 20 14 Noroeste 27 Oeste 0 -- -- 56
2019-06-20 22:00:00 21.5 16 Noroeste 30 Noroeste 0 -- -- 52
2019-06-20 21:00:00 23.8 21 Noroeste 32 Noroeste 0 -- -- 45
2019-06-20 20:00:00 26 18 Noroeste 36 Noroeste 0 -- -- 41
2019-06-20 19:00:00 26.4 19 Noroeste 33 Oeste 0 -- -- 40
2019-06-20 18:00:00 28.2 11 Oeste 31 Noroeste 0 -- -- 37
2019-06-20 17:00:00 28.1 17 Oeste 34 Noroeste 0 -- -- 37
2019-06-20 16:00:00 28.2 12 Oeste 27 Sudoeste 0 -- -- 35
2019-06-20 15:00:00 27.3 12 Oeste 29 Oeste 0 -- -- 37
2019-06-20 14:00:00 25.9 12 Sudoeste 24 Sudoeste 0 -- -- 40
2019-06-20 13:00:00 24.7 13 Noroeste 29 Oeste 0 -- -- 45
2019-06-20 12:00:00 24 14 Sudoeste 30 Oeste 0 -- -- 49
2019-06-20 11:00:00 21.7 5 Sudoeste 15 Sur 0 -- -- 56
2019-06-20 10:00:00 20 6 Noroeste 15 Oeste 0 -- -- 64
2019-06-20 09:00:00 17.8 8 Oeste 12 Oeste 0 -- -- 75
2019-06-20 08:00:00 15.6 6 Oeste 11 Noroeste 0 -- -- 82
2019-06-20 07:00:00 14.7 3 Oeste 8 Sudoeste 0 -- -- 83
2019-06-20 06:00:00 15.9 4 Sur 8 Sur 0 -- -- 81
2019-06-20 05:00:00 16.9 2 Sur 10 Oeste 0 -- -- 76
2019-06-20 04:00:00 17.2 5 Oeste 13 Noroeste 0 -- -- 76
2019-06-20 03:00:00 18.1 2 Oeste 13 Oeste 0 -- -- 72
2019-06-20 02:00:00 19.2 8 Oeste 13 Oeste 0 -- -- 69
2019-06-20 01:00:00 20.2 8 Oeste 18 Oeste 0 -- -- 64
2019-06-20 00:00:00 20.8 6 Sudoeste 14 Oeste 0 -- -- 60
2019-06-19 23:00:00 22 9 Oeste 17 Oeste 0 -- -- 56
2019-06-19 22:00:00 24 11 Oeste 19 Oeste 0 -- -- 51
2019-06-19 21:00:00 24.8 10 Oeste 22 Oeste 0 -- -- 51
2019-06-19 20:00:00 25.2 11 Sudoeste 22 Sudoeste 0 -- -- 52
2019-06-19 19:00:00 26.2 12 Sudoeste 25 Sudoeste 0 -- -- 50
2019-06-19 18:00:00 26.2 11 Sudoeste 22 Oeste 0 -- -- 49
2019-06-19 17:00:00 25.4 13 Sudoeste 26 Oeste 0 -- -- 52
2019-06-19 16:00:00 24.5 14 Sudoeste 32 Sudoeste 0 -- -- 56
2019-06-19 15:00:00 24.7 13 Sudoeste 24 Sudoeste 0 -- -- 56
2019-06-19 14:00:00 24.3 11 Sur 22 Sur 0 -- -- 58
2019-06-19 13:00:00 21.4 13 Sur 22 Sur 0 -- -- 66
2019-06-19 12:00:00 20.5 7 Sur 30 Sudoeste 0 -- -- 70
2019-06-19 11:00:00 20.8 8 Sudoeste 16 Sudoeste 0 -- -- 71
2019-06-19 10:00:00 19.7 7 Sudoeste 13 Oeste 0 -- -- 78
2019-06-19 09:00:00 18.7 8 Sudoeste 13 Sur 0 -- -- 82
2019-06-19 08:00:00 18.2 5 Sur 10 Sur 0 -- -- 84
2019-06-19 07:00:00 17.6 7 Sur 14 Sur 0 -- -- 85
2019-06-19 06:00:00 16.9 5 Sur 12 Sur 0 -- -- 86
2019-06-19 05:00:00 16.7 6 Sudoeste 15 Sudoeste 0 -- -- 86
2019-06-19 04:00:00 17.1 7 Sudoeste 18 Sudoeste 0 -- -- 83
2019-06-19 03:00:00 18 7 Sudoeste 15 Sudoeste 0 -- -- 78
2019-06-19 02:00:00 19.2 8 Oeste 18 Oeste 0 -- -- 70
2019-06-19 01:00:00 19.6 7 Oeste 13 Oeste 0 -- -- 67
2019-06-19 00:00:00 20.6 8 Oeste 19 Oeste -- -- -- 62
2019-06-18 23:00:00 22.1 11 Oeste 25 Oeste 0 -- -- 53
2019-06-18 22:00:00 23.7 16 Oeste 34 Oeste 0 -- -- 46
2019-06-18 21:00:00 -- 18 Oeste 33 Oeste 0 -- -- --
2019-06-18 20:00:00 26 15 Sudoeste 34 Sudoeste 0 -- -- 50
2019-06-18 19:00:00 25.7 21 Sudoeste 38 Sudoeste 0 -- -- 52
2019-06-18 18:00:00 26.1 22 Sudoeste 41 Sudoeste 0 -- -- 51
2019-06-18 17:00:00 27.4 19 Sudoeste 39 Sudoeste 0 -- -- 47
2019-06-18 16:00:00 27.3 22 Sudoeste 41 Sudoeste 0 -- -- 46
2019-06-18 15:00:00 27 21 Sudoeste 39 Sur 0 -- -- 46
2019-06-18 14:00:00 25.5 17 Sudoeste 33 Sur 0 -- -- 52
2019-06-18 13:00:00 24.3 19 Sudoeste 34 Sudoeste 0 -- -- 55
2019-06-18 12:00:00 22.3 17 Sudoeste 28 Sudoeste 0 -- -- 61
2019-06-18 11:00:00 21.5 9 Sur 17 Sur 0 -- -- 63
2019-06-18 10:00:00 17.8 5 Sur 13 Sur 0 -- -- 73
2019-06-18 09:00:00 15.4 5 Sur 12 Sur 0 -- -- 77
2019-06-18 08:00:00 13.5 4 Oeste 8 Oeste 0 -- -- 83
2019-06-18 07:00:00 12.9 3 Sur 7 Sur 0 -- -- 83
2019-06-18 06:00:00 13.5 5 Sur 10 Sur 0 -- -- 76
2019-06-18 05:00:00 13.9 4 Sur 9 Noroeste 0 -- -- 64
2019-06-18 04:00:00 15.9 5 Sudoeste 17 Sudoeste 0 -- -- 53
2019-06-18 03:00:00 17.4 4 Sudoeste 11 Sur 0 -- -- 48
2019-06-18 02:00:00 17.9 2 Sudoeste 6 Noroeste 0 -- -- 44
2019-06-18 01:00:00 20.3 5 Noroeste 15 Noroeste 0 -- -- 40
2019-06-18 00:00:00 22.4 4 Noroeste 13 Oeste 0 -- -- 38
2019-06-17 23:00:00 24.6 7 Oeste 19 Oeste 0 -- -- 38
2019-06-17 22:00:00 26.8 12 Oeste 30 Sudoeste 0 -- -- 34
2019-06-17 21:00:00 28.4 8 Sur 25 Sudoeste 0 -- -- 21
2019-06-17 20:00:00 30.6 15 Sudoeste 32 Sudoeste 0 -- -- 19
2019-06-17 19:00:00 31.6 16 Sudoeste 34 Oeste 0 -- -- 18
2019-06-17 18:00:00 32.2 18 Sudoeste 33 Sudoeste 0 -- -- 20
2019-06-17 17:00:00 31.4 14 Sudoeste 33 Sudoeste 0 -- -- 21
2019-06-17 16:00:00 30.7 12 Oeste 29 Oeste 0 -- -- 23
2019-06-17 15:00:00 30.7 14 Sudoeste 27 Sur 0 -- -- 21
2019-06-17 14:00:00 29.5 12 Oeste 26 Sudoeste 0 -- -- 27
2019-06-17 13:00:00 27.5 7 Sudoeste 15 Sudoeste 0 -- -- 34
2019-06-17 12:00:00 25.1 5 Sudoeste 11 Sur 0 -- -- 42
2019-06-17 11:00:00 22.2 3 Este 9 Este 0 -- -- 48
2019-06-17 10:00:00 19.2 4 Sur 8 Sudoeste 0 -- -- 57
2019-06-17 09:00:00 16.5 2 Sur 5 Sudoeste 0 -- -- 67
2019-06-17 08:00:00 12.3 0 Calma 8 Norte 0 -- -- 81
2019-06-17 07:00:00 11.1 0 Calma 5 Sudoeste 0 -- -- 75
2019-06-17 06:00:00 12.2 0 Calma 4 Sur 0 -- -- 75
2019-06-17 05:00:00 14.2 3 Sur 8 Sur 0 -- -- 65
2019-06-17 04:00:00 15.7 4 Sudoeste 10 Oeste 0 -- -- 67
2019-06-17 03:00:00 17.4 4 Oeste 11 Oeste 0 -- -- 63
2019-06-17 02:00:00 18.8 6 Oeste 15 Sudoeste 0 -- -- 60
2019-06-17 01:00:00 19.6 6 Sudoeste 27 Oeste 0 -- -- 58
2019-06-17 00:00:00 21.3 16 Noroeste 31 Oeste 0 -- -- 54
2019-06-16 23:00:00 23.5 17 Noroeste 29 Noroeste 0 -- -- 44
2019-06-16 22:00:00 26.2 13 Noroeste 24 Noroeste 0 -- -- 32
2019-06-16 21:00:00 29 13 Oeste 26 Sudoeste 0 -- -- 28
2019-06-16 20:00:00 31.3 12 Sudoeste 23 Sudoeste 0 -- -- 19
2019-06-16 19:00:00 31.5 11 Sudoeste 25 Sudoeste 0 -- -- 19
2019-06-16 18:00:00 31.9 12 Sudoeste 23 Sur 0 -- -- 17
2019-06-16 17:00:00 31 10 Sur 20 Oeste 0 -- -- 20
2019-06-16 16:00:00 29 7 Sudoeste 21 Oeste 0 -- -- 27
2019-06-16 15:00:00 29.9 9 Sudoeste 23 Sudoeste 0 -- -- 28
2019-06-16 14:00:00 29.1 6 Sudeste 14 Sudeste 0 -- -- 28
2019-06-16 13:00:00 27.6 5 Este 12 Este 0 -- -- 31
2019-06-16 12:00:00 25.3 4 Sudeste 10 Sudeste 0 -- -- 39
2019-06-16 11:00:00 22 3 Sudeste 8 Este 0 -- -- 46
2019-06-16 10:00:00 18.6 3 Norte 9 Noroeste 0 -- -- 56
2019-06-16 09:00:00 15.1 4 Noroeste 6 Oeste 0 -- -- 67
2019-06-16 08:00:00 12.4 3 Noroeste 5 Noroeste 0 -- -- 77
2019-06-16 07:00:00 10.8 4 Norte 5 Norte 0 -- -- 73
2019-06-16 06:00:00 11.5 4 Noroeste 5 Noroeste 0 -- -- 69
2019-06-16 05:00:00 12.8 4 Noroeste 6 Noroeste 0 -- -- 68
2019-06-16 04:00:00 14.7 0 Calma 9 Noroeste 0 -- -- 64
2019-06-16 03:00:00 16.2 4 Noroeste 21 Noroeste 0 -- -- 59
2019-06-16 02:00:00 17.3 14 Noroeste 29 Oeste 0 -- -- 56
2019-06-16 01:00:00 18.3 16 Noroeste 30 Noroeste 0 -- -- 54
2019-06-16 00:00:00 20 14 Noroeste 27 Noroeste 0 -- -- 52
2019-06-15 23:00:00 21.3 8 Noroeste 14 Oeste 0 -- -- 39
2019-06-15 22:00:00 23.7 8 Oeste 18 Oeste 0 -- -- 33
2019-06-15 21:00:00 26 5 Oeste 17 Oeste 0 -- -- 29
2019-06-15 20:00:00 28.2 9 Oeste 20 Noroeste 0 -- -- 26
2019-06-15 19:00:00 28.3 6 Oeste 18 Noroeste 0 -- -- 25
2019-06-15 18:00:00 28.4 6 Norte 21 Nordeste 0 -- -- 25
2019-06-15 17:00:00 28.3 10 Norte 21 Nordeste 0 -- -- 26
2019-06-15 16:00:00 27.4 6 Noroeste 18 Noroeste 0 -- -- 28
2019-06-15 15:00:00 26.4 4 Este 27 Nordeste 0 -- -- 30
2019-06-15 14:00:00 24.3 5 Oeste 17 Sudoeste 0 -- -- 33
2019-06-15 13:00:00 24.1 5 Noroeste 19 Noroeste 0 -- -- 33
2019-06-15 12:00:00 22.5 9 Norte 17 Norte 0 -- -- 37
2019-06-15 11:00:00 20.3 6 Norte 18 Oeste 0 -- -- 47
2019-06-15 10:00:00 17 3 Oeste 10 Sudoeste 0 -- -- 61
2019-06-15 09:00:00 14 3 Sudoeste 11 Sudoeste 0 -- -- 74
2019-06-15 08:00:00 11.7 0 Calma 8 Oeste 0 -- -- 83
2019-06-15 07:00:00 10.6 3 Oeste 9 Oeste 0 -- -- 81
2019-06-15 06:00:00 11.2 4 Noroeste 8 Noroeste 0 -- -- 80
2019-06-15 05:00:00 11.6 3 Oeste 10 Noroeste 0 -- -- 78
2019-06-15 04:00:00 12.7 2 Sudoeste 9 Norte 0 -- -- 72
2019-06-15 03:00:00 13.6 5 Noroeste 18 Oeste 0 -- -- 67
2019-06-15 02:00:00 14.4 10 Noroeste 15 Noroeste 0 -- -- 65
2019-06-15 01:00:00 14.3 9 Noroeste 14 Oeste 0 -- -- 64
2019-06-15 00:00:00 15.8 4 Oeste 13 Noroeste 0 -- -- 55
2019-06-14 23:00:00 17 6 Oeste 17 Noroeste 0 -- -- 53
2019-06-14 22:00:00 18.3 11 Noroeste 26 Noroeste 0 -- -- 49
2019-06-14 21:00:00 19.9 18 Noroeste 31 Oeste 0 -- -- 43
2019-06-14 20:00:00 20.9 18 Oeste 32 Noroeste 0 -- -- 41
2019-06-14 19:00:00 21.2 15 Oeste 36 Oeste 0 -- -- 40
2019-06-14 18:00:00 22.7 19 Oeste 43 Sudoeste 0 -- -- 33
2019-06-14 17:00:00 23.4 19 Oeste 40 Oeste 0 -- -- 34
2019-06-14 16:00:00 21.7 18 Oeste 32 Oeste 0 -- -- 38
2019-06-14 15:00:00 21.2 21 Oeste 44 Oeste 0 -- -- 41
2019-06-14 14:00:00 21.1 18 Oeste 40 Oeste 0 -- -- 37
2019-06-14 13:00:00 20.1 18 Oeste 37 Oeste 0 -- -- 40
2019-06-14 12:00:00 19.5 17 Oeste 40 Oeste 0 -- -- 44
2019-06-14 11:00:00 18 14 Oeste 30 Oeste 0 -- -- 52
2019-06-14 10:00:00 16.2 12 Oeste 25 Oeste 0 -- -- 60
2019-06-14 09:00:00 14.3 9 Oeste 19 Oeste 0 -- -- 68
2019-06-14 08:00:00 11.3 8 Sudoeste 13 Sudoeste 0 -- -- 83
2019-06-14 07:00:00 10.4 6 Sudoeste 13 Sudoeste 0 -- -- 85
2019-06-14 06:00:00 11.4 4 Sudoeste 13 Oeste 0 -- -- 79
2019-06-14 05:00:00 12 6 Oeste 12 Oeste 0 -- -- 75
2019-06-14 04:00:00 12.5 4 Sur 15 Noroeste 0 -- -- 72
2019-06-14 03:00:00 13.4 6 Oeste 27 Oeste 0 -- -- 67
2019-06-14 02:00:00 14 17 Noroeste 38 Noroeste 0 -- -- 65
2019-06-14 01:00:00 15 21 Noroeste 40 Oeste 0 -- -- 59
2019-06-14 00:00:00 16.4 23 Noroeste 42 Noroeste 0 -- -- 53
2019-06-13 23:00:00 18.1 20 Noroeste 35 Noroeste 0 -- -- 48
2019-06-13 22:00:00 20.7 18 Noroeste 33 Oeste 0 -- -- 40
2019-06-13 21:00:00 23.6 17 Noroeste 33 Oeste 0 -- -- 31
2019-06-13 20:00:00 26.4 18 Noroeste 34 Noroeste 0 -- -- 26
2019-06-13 19:00:00 26.1 12 Oeste 34 Oeste 0 -- -- 24
2019-06-13 18:00:00 28.4 15 Oeste 31 Oeste 0 -- -- 24
2019-06-13 17:00:00 27.8 7 Oeste 26 Sudoeste 0 -- -- 26
2019-06-13 16:00:00 27.9 11 Oeste 27 Noroeste 0 -- -- 27
2019-06-13 15:00:00 25.4 11 Sudoeste 23 Sudoeste 0 -- -- 33
2019-06-13 14:00:00 23.3 6 Sur 20 Sudoeste 0 -- -- 38
2019-06-13 13:00:00 21.5 10 Sur 19 Sur 0 -- -- 43
2019-06-13 12:00:00 19.2 5 Oeste 15 Sur 0 -- -- 49
2019-06-13 11:00:00 17.1 5 Sudoeste 13 Sur 0 -- -- 58
2019-06-13 10:00:00 14.4 5 Sudoeste 15 Oeste 0 -- -- 68
2019-06-13 09:00:00 12.3 8 Sudoeste 14 Sudoeste 0 -- -- 77
2019-06-13 08:00:00 10 8 Sur 12 Sur 0 -- -- 84
2019-06-13 07:00:00 9.5 5 Sur 10 Sudoeste 0 -- -- 85
2019-06-13 06:00:00 10.3 4 Sudoeste 16 Sudoeste 0 -- -- 80
2019-06-13 05:00:00 11.2 8 Oeste 16 Sudoeste 0 -- -- 75
2019-06-13 04:00:00 11.7 4 Sur 19 Oeste 0 -- -- 72
2019-06-13 03:00:00 12.8 10 Oeste 20 Oeste 0 -- -- 67
2019-06-13 02:00:00 13.6 5 Oeste 32 Oeste 0 -- -- 60
2019-06-13 01:00:00 14.8 18 Oeste 32 Oeste 0 -- -- 55
2019-06-13 00:00:00 16.8 17 Noroeste 33 Noroeste 0 -- -- 46
2019-06-12 23:00:00 19 19 Noroeste 38 Noroeste 0 -- -- 41
2019-06-12 22:00:00 22 20 Noroeste 33 Oeste 0 -- -- 34
2019-06-12 21:00:00 25 20 Noroeste 33 Noroeste 0 -- -- 20
2019-06-12 20:00:00 28.1 20 Noroeste 34 Oeste 0 -- -- 18
2019-06-12 19:00:00 29.6 16 Noroeste 28 Noroeste 0 -- -- 16
2019-06-12 18:00:00 29.9 17 Oeste 28 Oeste 0 -- -- 15
2019-06-12 17:00:00 30.5 12 Noroeste 28 Sudoeste 0 -- -- 14
2019-06-12 16:00:00 29.6 10 Sudoeste 28 Sudoeste 0 -- -- 16
2019-06-12 15:00:00 28.5 10 Sur 23 Sur 0 -- -- 21
2019-06-12 14:00:00 28.4 3 Oeste 17 Sudoeste 0 -- -- 21
2019-06-12 13:00:00 26.5 8 Sudoeste 18 Oeste 0 -- -- 22
2019-06-12 12:00:00 24.8 4 Sur 11 Sudeste 0 -- -- 24
2019-06-12 11:00:00 22.6 4 Sudeste 9 Nordeste 0 -- -- 29
2019-06-12 10:00:00 20.7 5 Norte 13 Norte 0 -- -- 35
2019-06-12 09:00:00 15.8 5 Noroeste 10 Noroeste 0 -- -- 52
2019-06-12 08:00:00 11.7 4 Norte 12 Norte 0 -- -- 61
2019-06-12 07:00:00 11.7 5 Norte 15 Norte 0 -- -- 53
2019-06-12 06:00:00 12 7 Noroeste 10 Norte 0 -- -- 55
2019-06-12 05:00:00 12 5 Norte 14 Norte 0 -- -- 53
2019-06-12 04:00:00 10.9 6 Norte 13 Norte 0 -- -- 55
2019-06-12 03:00:00 12.2 6 Norte 12 Norte 0 -- -- 49
2019-06-12 02:00:00 12.7 8 Norte 13 Noroeste 0 -- -- 41
2019-06-12 01:00:00 14.4 4 Noroeste 9 Oeste 0 -- -- 35
2019-06-12 00:00:00 15.7 6 Norte 9 Norte 0 -- -- 32
2019-06-11 23:00:00 18.7 3 Norte 13 Norte 0 -- -- 27
2019-06-11 22:00:00 22.3 13 Norte 27 Nordeste 0 -- -- 23
2019-06-11 21:00:00 24.8 19 Norte 32 Norte 0 -- -- 21
2019-06-11 20:00:00 26.7 16 Nordeste 40 Norte 0 -- -- 22
2019-06-11 19:00:00 28.1 18 Norte 42 Norte 0 -- -- 19
2019-06-11 18:00:00 29.1 20 Norte 43 Norte 0 -- -- 19
2019-06-11 17:00:00 29.1 22 Norte 38 Norte 0 -- -- 19
2019-06-11 16:00:00 29.2 21 Norte 41 Norte 0 -- -- 18
2019-06-11 15:00:00 28.8 19 Norte 37 Norte 0 -- -- 22
2019-06-11 14:00:00 28.2 22 Norte 38 Nordeste 0 -- -- 26
2019-06-11 13:00:00 26.1 20 Noroeste 41 Noroeste 0 -- -- 30
2019-06-11 12:00:00 24.6 20 Noroeste 41 Noroeste 0 -- -- 34
2019-06-11 11:00:00 22.7 18 Norte 34 Norte 0 -- -- 41
2019-06-11 10:00:00 18.8 12 Noroeste 24 Noroeste 0 -- -- 51
2019-06-11 09:00:00 16 16 Noroeste 27 Noroeste 0 -- -- 58
2019-06-11 08:00:00 13.3 12 Noroeste 25 Noroeste 0 -- -- 68
2019-06-11 07:00:00 12.5 10 Noroeste 23 Noroeste 0 -- -- 72
2019-06-11 06:00:00 12.7 12 Noroeste 25 Noroeste 0 -- -- 71
2019-06-11 05:00:00 13 13 Noroeste 25 Noroeste 0 -- -- 69
2019-06-11 04:00:00 13.5 13 Noroeste 23 Oeste 0 -- -- 65
2019-06-11 03:00:00 14.2 10 Oeste 24 Oeste 0 -- -- 61
2019-06-11 02:00:00 14.9 12 Oeste 23 Oeste 0 -- -- 57
2019-06-11 01:00:00 15.7 18 Oeste 28 Oeste 0 -- -- 55
2019-06-11 00:00:00 17.2 11 Oeste 37 Oeste 0 -- -- 50
2019-06-10 23:00:00 18.7 23 Noroeste 40 Noroeste 0 -- -- 43
2019-06-10 22:00:00 21.1 17 Oeste 36 Oeste 0 -- -- 37
2019-06-10 21:00:00 23.8 21 Oeste 40 Oeste 0 -- -- 31
2019-06-10 20:00:00 27.1 19 Noroeste 37 Oeste 0 -- -- 28
2019-06-10 19:00:00 28.4 15 Oeste 35 Noroeste 0 -- -- 28
2019-06-10 18:00:00 30 14 Noroeste 31 Oeste 0 -- -- 26
2019-06-10 17:00:00 30.2 14 Noroeste 30 Oeste 0 -- -- 23
2019-06-10 16:00:00 29.7 13 Noroeste 26 Noroeste 0 -- -- 24
2019-06-10 15:00:00 29.9 10 Norte 27 Noroeste 0 -- -- 25
2019-06-10 14:00:00 28.7 12 Norte 28 Noroeste 0 -- -- 26
2019-06-10 13:00:00 26.8 10 Noroeste 24 Norte 0 -- -- 30
2019-06-10 12:00:00 23.8 6 Noroeste 21 Noroeste 0 -- -- 40
2019-06-10 11:00:00 20.8 10 Oeste 18 Noroeste 0 -- -- 49
2019-06-10 10:00:00 17.8 7 Oeste 17 Noroeste 0 -- -- 61
2019-06-10 09:00:00 15.2 9 Noroeste 14 Noroeste 0 -- -- 72
2019-06-10 08:00:00 12.9 4 Oeste 10 Oeste 0 -- -- 82
2019-06-10 07:00:00 12.4 4 Oeste 18 Noroeste 0 -- -- 84
2019-06-10 06:00:00 12.8 6 Oeste 21 Noroeste 0 -- -- 83
2019-06-10 05:00:00 13.3 14 Noroeste 21 Noroeste 0 -- -- 81
2019-06-10 04:00:00 14 5 Noroeste 17 Oeste 0 -- -- 76
2019-06-10 03:00:00 14.8 9 Oeste 22 Noroeste 0 -- -- 74
2019-06-10 02:00:00 15.7 10 Oeste 21 Noroeste 0 -- -- 68
2019-06-10 01:00:00 16.8 14 Oeste 23 Oeste 0 -- -- 62
2019-06-10 00:00:00 18.1 12 Oeste 22 Oeste 0 -- -- 54
2019-06-09 23:00:00 19.6 13 Noroeste 27 Noroeste 0 -- -- 47
2019-06-09 22:00:00 21.4 17 Noroeste 33 Oeste 0 -- -- 41
2019-06-09 21:00:00 23.4 19 Noroeste 35 Oeste 0 -- -- 37
2019-06-09 20:00:00 25.8 18 Oeste 40 Oeste 0 -- -- 32
2019-06-09 19:00:00 26.5 14 Oeste 38 Oeste 0 -- -- 32
2019-06-09 18:00:00 28.1 17 Oeste 38 Oeste 0 -- -- 30
2019-06-09 17:00:00 28.6 17 Noroeste 30 Oeste 0 -- -- 28
2019-06-09 16:00:00 27.7 17 Oeste 28 Oeste 0 -- -- 29
2019-06-09 15:00:00 27 14 Oeste 28 Oeste 0 -- -- 27
2019-06-09 14:00:00 25.8 13 Noroeste 29 Noroeste 0 -- -- 28
2019-06-09 13:00:00 23.8 9 Noroeste 21 Sudoeste 0 -- -- 36
2019-06-09 12:00:00 20.7 9 Sudoeste 19 Oeste 0 -- -- 43
2019-06-09 11:00:00 18.3 9 Sudoeste 21 Oeste 0 -- -- 52
2019-06-09 10:00:00 15.7 9 Oeste 19 Sudoeste 0 -- -- 61
2019-06-09 09:00:00 13.1 8 Sudoeste 17 Sudoeste 0 -- -- 72
2019-06-09 08:00:00 10.7 8 Sudoeste 15 Sudoeste 0 -- -- 80
2019-06-09 07:00:00 9.9 5 Sudoeste 13 Sudoeste 0 -- -- 79
2019-06-09 06:00:00 10.7 7 Sudoeste 16 Sudoeste 0 -- -- 71
2019-06-09 05:00:00 11.9 8 Sudoeste 15 Sudoeste 0 -- -- 64
2019-06-09 04:00:00 11.9 3 Oeste 9 Sur 0 -- -- 63
2019-06-09 03:00:00 13.4 3 Sudoeste 18 Oeste 0 -- -- 57
2019-06-09 02:00:00 14.7 7 Oeste 24 Noroeste 0 -- -- 54
2019-06-09 01:00:00 15.7 8 Oeste 38 Noroeste 0 -- -- 51
2019-06-09 00:00:00 17.5 22 Noroeste 42 Noroeste 0 -- -- 48
2019-06-08 23:00:00 19.7 22 Noroeste 38 Noroeste 0 -- -- 44
2019-06-08 22:00:00 22.6 22 Noroeste 36 Noroeste 0 -- -- 39
2019-06-08 21:00:00 25.3 16 Noroeste 32 Noroeste 0 -- -- 28
2019-06-08 20:00:00 27.9 15 Noroeste 27 Noroeste 0 -- -- 24
2019-06-08 19:00:00 29.3 12 Noroeste 23 Noroeste 0 -- -- 22
2019-06-08 18:00:00 29.8 9 Sur 18 Sudoeste 0 -- -- 21
2019-06-08 17:00:00 29.5 7 Sur 23 Sudoeste 0 -- -- 21
2019-06-08 16:00:00 29 9 Sudoeste 21 Sudoeste 0 -- -- 20
2019-06-08 15:00:00 27.7 10 Sur 21 Sur 0 -- -- 21
2019-06-08 14:00:00 26.9 9 Oeste 28 Sur 0 -- -- 25
2019-06-08 13:00:00 25.5 5 Sudoeste 13 Oeste 0 -- -- 28
2019-06-08 12:00:00 25.1 4 Nordeste 14 Norte 0 -- -- 31
2019-06-08 11:00:00 22.1 4 Norte 14 Norte 0 -- -- 38
2019-06-08 10:00:00 17.8 4 Norte 11 Norte 0 -- -- 51
2019-06-08 09:00:00 14.3 6 Noroeste 12 Noroeste 0 -- -- 64
2019-06-08 08:00:00 9.6 4 Norte 9 Noroeste 0 -- -- 82
2019-06-08 07:00:00 8.5 4 Noroeste 9 Noroeste 0 -- -- 83
2019-06-08 06:00:00 9.3 6 Noroeste 8 Noroeste 0 -- -- 75
2019-06-08 05:00:00 10.5 3 Noroeste 8 Norte 0 -- -- 74
2019-06-08 04:00:00 11.4 4 Noroeste 8 Noroeste 0 -- -- 68
2019-06-08 03:00:00 12.6 3 Norte 14 Noroeste 0 -- -- 64
2019-06-08 02:00:00 14.7 9 Noroeste 25 Noroeste 0 -- -- 57
2019-06-08 01:00:00 16.1 15 Noroeste 27 Noroeste 0 -- -- 52
2019-06-08 00:00:00 17.4 14 Noroeste 23 Noroeste 0 -- -- 46
2019-06-07 23:00:00 18.5 13 Noroeste 22 Noroeste 0 -- -- 41
2019-06-07 22:00:00 20.2 10 Noroeste 19 Noroeste 0 -- -- 37
2019-06-07 21:00:00 22.7 10 Noroeste 21 Oeste 0 -- -- 31
2019-06-07 20:00:00 25 9 Noroeste 19 Noroeste 0 -- -- 28
2019-06-07 19:00:00 25.2 12 Oeste 27 Noroeste 0 -- -- 29
2019-06-07 18:00:00 25.6 10 Norte 23 Noroeste 0 -- -- 28
2019-06-07 17:00:00 25.4 15 Noroeste 28 Noroeste 0 -- -- 28
2019-06-07 16:00:00 25.3 13 Noroeste 27 Noroeste 0 -- -- 29
2019-06-07 15:00:00 23.6 13 Noroeste 29 Noroeste 0 -- -- 32
2019-06-07 14:00:00 22.3 9 Noroeste 22 Oeste 0 -- -- 36
2019-06-07 13:00:00 20.5 8 Noroeste 20 Noroeste 0 -- -- 40
2019-06-07 12:00:00 20.7 9 Norte 24 Noroeste 0 -- -- 44
2019-06-07 11:00:00 17.9 10 Noroeste 22 Noroeste 0 -- -- 53
2019-06-07 10:00:00 15.6 11 Noroeste 22 Noroeste 0 -- -- 68
2019-06-07 09:00:00 13.1 12 Oeste 18 Oeste 0 -- -- 83
2019-06-07 08:00:00 11 7 Noroeste 13 Noroeste 0 -- -- 92
2019-06-07 07:00:00 10.4 4 Norte 13 Oeste 0 -- -- 88
2019-06-07 06:00:00 12 7 Oeste 14 Oeste 0 -- -- 88
2019-06-07 05:00:00 12.6 5 Oeste 18 Oeste 0 -- -- 85
2019-06-07 04:00:00 13 4 Sudoeste 12 Oeste 0 -- -- 85
2019-06-07 03:00:00 13.6 5 Oeste 19 Oeste 0 -- -- 83
2019-06-07 02:00:00 13.9 7 Oeste 15 Noroeste 0 -- -- 87
2019-06-07 01:00:00 13.5 6 Oeste 26 Noroeste 0.2 -- -- 86
2019-06-07 00:00:00 14.5 11 Noroeste 45 Sudoeste 0.4 -- -- 88
2019-06-06 23:00:00 18.6 20 Sudoeste 46 Sudoeste 0 -- -- 62
2019-06-06 22:00:00 19.6 22 Sudoeste 46 Sudoeste 0 -- -- 57
2019-06-06 21:00:00 20.7 22 Sudoeste 47 Sudoeste 0 -- -- 53
2019-06-06 20:00:00 22.8 22 Sudoeste 47 Oeste 0 -- -- 44
2019-06-06 19:00:00 24.2 21 Sudoeste 42 Sudoeste 0 -- -- 38
2019-06-06 18:00:00 24.5 24 Sudoeste 45 Sudoeste 0 -- -- 37
2019-06-06 17:00:00 24.5 19 Sudoeste 41 Sudoeste 0 -- -- 36
2019-06-06 16:00:00 24.5 18 Sudoeste 41 Sur 0 -- -- 34
2019-06-06 15:00:00 23.6 15 Sur 38 Sudoeste 0 -- -- 35
2019-06-06 14:00:00 22.3 14 Sudoeste 31 Sur 0 -- -- 36
2019-06-06 13:00:00 20.9 12 Sudoeste 23 Sur 0 -- -- 39
2019-06-06 12:00:00 19.7 6 Sudoeste 19 Sur 0 -- -- 45
2019-06-06 11:00:00 17.5 4 Sudoeste 13 Sudoeste 0 -- -- 57
2019-06-06 10:00:00 15.3 4 Sudoeste 13 Sudoeste 0 -- -- 62
2019-06-06 09:00:00 12.7 7 Sudoeste 11 Sudoeste 0 -- -- 70
2019-06-06 08:00:00 10.6 4 Sudoeste 8 Sur 0 -- -- 75
2019-06-06 07:00:00 9.1 2 Sudoeste 4 Sur 0 -- -- 76
2019-06-06 06:00:00 9.9 2 Nordeste 4 Norte 0 -- -- 72
2019-06-06 05:00:00 11 0 Calma 12 Noroeste 0 -- -- 70
2019-06-06 04:00:00 11.8 7 Noroeste 13 Noroeste 0 -- -- 65
2019-06-06 03:00:00 12.5 9 Noroeste 22 Noroeste 0 -- -- 62
2019-06-06 02:00:00 13.4 12 Noroeste 24 Oeste 0 -- -- 56
2019-06-06 01:00:00 14.6 13 Noroeste 28 Noroeste 0 -- -- 51
2019-06-06 00:00:00 15.5 15 Noroeste 28 Noroeste 0 -- -- 47
2019-06-05 23:00:00 16.8 13 Noroeste 29 Noroeste 0 -- -- 42
2019-06-05 22:00:00 18.5 14 Noroeste 28 Noroeste 0 -- -- 40
2019-06-05 21:00:00 20.7 15 Noroeste 31 Oeste 0 -- -- 35
2019-06-05 20:00:00 23 15 Oeste 36 Noroeste 0 -- -- 30
2019-06-05 19:00:00 23.9 16 Oeste 39 Oeste 0 -- -- 29
2019-06-05 18:00:00 23.7 18 Oeste 35 Noroeste 0 -- -- 31
2019-06-05 17:00:00 24.3 15 Noroeste 33 Noroeste 0 -- -- 31
2019-06-05 16:00:00 23.2 16 Noroeste 39 Oeste 0 -- -- 35
2019-06-05 15:00:00 22.6 15 Noroeste 49 Noroeste 0 -- -- 33
2019-06-05 14:00:00 22.1 16 Noroeste 33 Noroeste 0 -- -- 35
2019-06-05 13:00:00 21.7 16 Noroeste 35 Noroeste 0 -- -- 39
2019-06-05 12:00:00 20 19 Noroeste 37 Noroeste 0 -- -- 44
2019-06-05 11:00:00 18.2 14 Oeste 27 Oeste 0 -- -- 52
2019-06-05 10:00:00 16.3 13 Noroeste 28 Noroeste 0 -- -- 63
2019-06-05 09:00:00 14.3 12 Noroeste 25 Noroeste 0 -- -- 74
2019-06-05 08:00:00 12.2 4 Noroeste 18 Oeste 0 -- -- 84
2019-06-05 07:00:00 11.8 9 Noroeste 23 Noroeste 0 -- -- 84
2019-06-05 06:00:00 12.4 15 Noroeste 27 Oeste 0 -- -- 82
2019-06-05 05:00:00 12.6 11 Noroeste 21 Noroeste 0 -- -- 81
2019-06-05 04:00:00 13.1 10 Oeste 26 Oeste 0 -- -- 76
2019-06-05 03:00:00 13.8 13 Oeste 26 Oeste 0 -- -- 73
2019-06-05 02:00:00 14.1 12 Oeste 23 Oeste 0 -- -- 68
2019-06-05 01:00:00 14.7 7 Oeste 32 Oeste 0 -- -- 64
2019-06-05 00:00:00 15.9 16 Noroeste 33 Noroeste 0 -- -- 56
2019-06-04 23:00:00 17.3 22 Noroeste 37 Noroeste 0 -- -- 49
2019-06-04 22:00:00 19.2 19 Noroeste 36 Oeste 0 -- -- 50
2019-06-04 21:00:00 21 17 Oeste 32 Oeste 0 -- -- 53
2019-06-04 20:00:00 21.4 17 Noroeste 42 Noroeste 0 -- -- 52
2019-06-04 19:00:00 21.8 24 Noroeste 51 Noroeste 0 -- -- 56
2019-06-04 18:00:00 23.8 28 Noroeste 55 Oeste 0 -- -- 53
2019-06-04 17:00:00 26.5 21 Oeste 39 Oeste 0 -- -- 44
2019-06-04 16:00:00 26.4 16 Oeste 35 Oeste 0 -- -- 41
2019-06-04 15:00:00 25.9 16 Oeste 31 Noroeste 0 -- -- 45
2019-06-04 14:00:00 24.1 15 Oeste 28 Sudoeste 0 -- -- 51
2019-06-04 13:00:00 22.6 11 Sudoeste 27 Noroeste 0 -- -- 56
2019-06-04 12:00:00 21.1 15 Oeste 28 Oeste 0 -- -- 60
2019-06-04 11:00:00 20.3 9 Oeste 24 Oeste 0 -- -- 62
2019-06-04 10:00:00 18.6 14 Oeste 26 Oeste 0 -- -- 67
2019-06-04 09:00:00 18.1 10 Oeste 21 Oeste 0 -- -- 70
2019-06-04 08:00:00 16.6 12 Oeste 19 Sudoeste 0 -- -- 78
2019-06-04 07:00:00 16.1 7 Oeste 17 Oeste 0 -- -- 81
2019-06-04 06:00:00 16.1 8 Oeste 20 Oeste 0 -- -- 83
2019-06-04 05:00:00 16.8 9 Oeste 17 Oeste 0 -- -- 79
2019-06-04 04:00:00 17.7 8 Oeste 15 Oeste 0 -- -- 79
2019-06-04 03:00:00 18.9 8 Oeste 18 Sudoeste 0 -- -- 75
2019-06-04 02:00:00 20 7 Oeste 24 Oeste 0 -- -- 70
2019-06-04 01:00:00 21.1 11 Oeste 26 Oeste 0 -- -- 66
2019-06-04 00:00:00 22.8 12 Oeste 36 Oeste 0 -- -- 60
2019-06-03 23:00:00 25 15 Noroeste 32 Noroeste 0 -- -- 54
2019-06-03 22:00:00 27.4 14 Oeste 31 Oeste 0 -- -- 44
2019-06-03 21:00:00 29.8 16 Oeste 33 Oeste 0 -- -- 35
2019-06-03 20:00:00 32.4 15 Oeste 33 Oeste 0 -- -- 27
2019-06-03 19:00:00 33.6 15 Oeste 30 Sudoeste 0 -- -- 24
2019-06-03 18:00:00 34.7 14 Oeste 32 Oeste 0 -- -- 22
2019-06-03 17:00:00 34.9 17 Oeste 33 Oeste 0 -- -- 21
2019-06-03 16:00:00 34.9 14 Oeste 30 Oeste 0 -- -- 19
2019-06-03 15:00:00 34.8 14 Oeste 26 Oeste 0 -- -- 18
2019-06-03 14:00:00 33.1 14 Sur 26 Sur 0 -- -- 21
2019-06-03 13:00:00 31.3 10 Sur 21 Sur 0 -- -- 21
2019-06-03 12:00:00 28.7 7 Sudoeste 15 Sudoeste 0 -- -- 29
2019-06-03 11:00:00 25.3 5 Sur 13 Sur 0 -- -- 37
2019-06-03 10:00:00 21.7 6 Sudoeste 12 Sur 0 -- -- 47
2019-06-03 09:00:00 19 4 Sudoeste 10 Sudoeste 0 -- -- 56
2019-06-03 08:00:00 17 4 Sudoeste 7 Sur 0 -- -- 59
2019-06-03 07:00:00 17 3 Sudoeste 6 Sudoeste 0 -- -- 60
2019-06-03 06:00:00 18.1 3 Sudoeste 6 Sudoeste 0 -- -- 57
2019-06-03 05:00:00 19.9 3 Sudoeste 17 Sudoeste 0 -- -- 50
2019-06-03 04:00:00 21.1 8 Oeste 15 Oeste 0 -- -- 45
2019-06-03 03:00:00 22.5 5 Sudoeste 17 Oeste 0 -- -- 42
2019-06-03 02:00:00 23.1 8 Oeste 21 Noroeste 0 -- -- 43
2019-06-03 01:00:00 24.5 5 Oeste 17 Oeste 0 -- -- 40
2019-06-03 00:00:00 26.1 5 Noroeste 29 Noroeste 0 -- -- 33
2019-06-02 23:00:00 27.8 16 Noroeste 30 Noroeste 0 -- -- 31
2019-06-02 22:00:00 29.7 16 Noroeste 35 Noroeste 0 -- -- 24
2019-06-02 21:00:00 31.4 19 Noroeste 33 Noroeste 0 -- -- 22
2019-06-02 20:00:00 34.3 18 Noroeste 35 Oeste 0 -- -- 20
2019-06-02 19:00:00 37.7 17 Noroeste 31 Noroeste 0 -- -- 17
2019-06-02 18:00:00 37.8 7 Sur 21 Sur 0 -- -- 18
2019-06-02 17:00:00 37.8 8 Sudoeste 18 Sudoeste 0 -- -- 19
2019-06-02 16:00:00 37.5 14 Sur 24 Sudeste 0 -- -- 19
2019-06-02 15:00:00 36.5 4 Sudoeste 13 Sur 0 -- -- 18
2019-06-02 14:00:00 34.3 5 Sur 15 Sur 0 -- -- 23
2019-06-02 13:00:00 32 4 Sudoeste 15 Sudoeste 0 -- -- 27
2019-06-02 12:00:00 29.2 9 Sudoeste 17 Sur 0 -- -- 32
2019-06-02 11:00:00 26.3 9 Sudoeste 20 Sudoeste 0 -- -- 37
2019-06-02 10:00:00 23.6 10 Sudoeste 21 Sudoeste 0 -- -- 40
2019-06-02 09:00:00 21.4 11 Sudoeste 20 Sudoeste 0 -- -- 44
2019-06-02 08:00:00 19.4 8 Sudoeste 15 Sudoeste 0 -- -- 48
2019-06-02 07:00:00 19.2 7 Sudoeste 13 Sudoeste 0 -- -- 49
2019-06-02 06:00:00 19.7 7 Sudoeste 13 Sudoeste 0 -- -- 49
2019-06-02 05:00:00 20.4 4 Sudoeste 12 Sudoeste 0 -- -- 48
2019-06-02 04:00:00 21.1 4 Sudoeste 10 Sudoeste 0 -- -- 44
2019-06-02 03:00:00 23 5 Sur 9 Sur 0 -- -- 40
2019-06-02 02:00:00 24.1 7 Sur 15 Sur 0 -- -- 39
2019-06-02 01:00:00 23.7 4 Sudoeste 24 Sur 0 -- -- 37
2019-06-02 00:00:00 23.5 3 Noroeste 7 Noroeste 0 -- -- 32
2019-06-01 23:00:00 25 5 Noroeste 8 Norte 0 -- -- 27
2019-06-01 22:00:00 29.4 4 Noroeste 8 Nordeste 0 -- -- 22
2019-06-01 21:00:00 33.9 7 Nordeste 13 Nordeste 0 -- -- 17
2019-06-01 20:00:00 36 6 Nordeste 17 Nordeste 0 -- -- 16
2019-06-01 19:00:00 36.4 8 Nordeste 18 Sudeste 0 -- -- 16
2019-06-01 18:00:00 37 8 Nordeste 22 Norte 0 -- -- 17
2019-06-01 17:00:00 37.6 10 Norte 26 Nordeste 0 -- -- 17
2019-06-01 16:00:00 37.2 6 Este 17 Sudeste 0 -- -- 17
2019-06-01 15:00:00 35.8 6 Nordeste 16 Nordeste 0 -- -- 20
2019-06-01 14:00:00 33.9 5 Este 12 Nordeste 0 -- -- 21
2019-06-01 13:00:00 32.3 5 Este 12 Sur 0 -- -- 25
2019-06-01 12:00:00 30.7 4 Este 9 Este 0 -- -- 26
2019-06-01 11:00:00 27.3 3 Sudeste 8 Sur 0 -- -- 31
2019-06-01 10:00:00 23.9 2 Sur 7 Sur 0 -- -- 40
2019-06-01 09:00:00 21.2 0 Calma 8 Oeste 0 -- -- 45
2019-06-01 08:00:00 18.8 0 Calma 10 Sudoeste 0 -- -- 49
2019-06-01 07:00:00 18.7 5 Sudoeste 13 Sur 0 -- -- 47
2019-06-01 06:00:00 19.5 4 Sur 15 Sur 0 -- -- 46
2019-06-01 05:00:00 20.7 9 Sudoeste 21 Sudoeste 0 -- -- 42
2019-06-01 04:00:00 21.8 9 Sudoeste 18 Sudoeste 0 -- -- 40
2019-06-01 03:00:00 21.5 3 Sur 12 Sudoeste 0 -- -- 43
2019-06-01 02:00:00 22.8 5 Sudoeste 26 Sur 0 -- -- 37
2019-06-01 01:00:00 21.8 3 Sudeste 10 Noroeste 0 -- -- 37
2019-06-01 00:00:00 22.2 6 Norte 8 Noroeste 0 -- -- 34
2019-05-31 23:00:00 24.8 5 Norte 9 Noroeste 0 -- -- 29
2019-05-31 22:00:00 28.5 4 Norte 9 Sur 0 -- -- 23
2019-05-31 21:00:00 33.7 7 Sudeste 19 Sudeste 0 -- -- 20
2019-05-31 20:00:00 35.4 5 Este 18 Este 0 -- -- 17
2019-05-31 19:00:00 35.9 6 Este 23 Este 0 -- -- 16
2019-05-31 18:00:00 36.1 9 Este 27 Este 0 -- -- 17
2019-05-31 17:00:00 36.1 13 Este 27 Este 0 -- -- 18
2019-05-31 16:00:00 35.5 13 Este 27 Sudeste 0 -- -- 20
2019-05-31 15:00:00 34.4 9 Este 19 Este 0 -- -- 22
2019-05-31 14:00:00 33.4 10 Este 22 Este 0 -- -- 24
2019-05-31 13:00:00 31.5 6 Nordeste 15 Este 0 -- -- 28
2019-05-31 12:00:00 29.6 7 Nordeste 14 Este 0 -- -- 31
2019-05-31 11:00:00 27 5 Nordeste 12 Nordeste 0 -- -- 35
2019-05-31 10:00:00 23.9 7 Este 13 Este 0 -- -- 44
2019-05-31 09:00:00 21.3 4 Nordeste 9 Nordeste 0 -- -- 55
2019-05-31 08:00:00 15.8 3 Oeste 6 Noroeste 0 -- -- 68
2019-05-31 07:00:00 14.9 0 Calma 4 Sudeste 0 -- -- 66
2019-05-31 06:00:00 17.9 3 Sur 12 Sur 0 -- -- 61
2019-05-31 05:00:00 19 5 Sudoeste 13 Sudoeste 0 -- -- 57
2019-05-31 04:00:00 19.8 5 Sudoeste 13 Sudoeste 0 -- -- 52
2019-05-31 03:00:00 19.3 5 Sudoeste 10 Sudoeste 0 -- -- 50
2019-05-31 02:00:00 21.3 6 Sur 15 Sur 0 -- -- 39
2019-05-31 01:00:00 21.4 3 Sudeste 9 Nordeste 0 -- -- 35
2019-05-31 00:00:00 22.5 8 Nordeste 10 Nordeste 0 -- -- 32
2019-05-30 23:00:00 23.4 4 Nordeste 5 Nordeste 0 -- -- 29
2019-05-30 22:00:00 28.8 0 Calma 14 Sudeste 0 -- -- 22
2019-05-30 21:00:00 32.5 8 Sudeste 23 Este 0 -- -- 18
2019-05-30 20:00:00 34.4 8 Sudeste 20 Sudeste 0 -- -- 17
2019-05-30 19:00:00 35.1 9 Este 23 Sudeste 0 -- -- 17
2019-05-30 18:00:00 35.2 9 Este 23 Este 0 -- -- 17
2019-05-30 17:00:00 34.8 10 Este 27 Este 0 -- -- 18
2019-05-30 16:00:00 33.9 11 Este 28 Sudeste 0 -- -- 19
2019-05-30 15:00:00 33.1 13 Este 30 Nordeste 0 -- -- 18
2019-05-30 14:00:00 32.1 13 Este 30 Nordeste 0 -- -- 18
2019-05-30 13:00:00 31.6 14 Este 32 Este 0 -- -- 19
2019-05-30 12:00:00 30.2 12 Nordeste 30 Nordeste 0 -- -- 20
2019-05-30 11:00:00 28.4 11 Nordeste 23 Nordeste 0 -- -- 25
2019-05-30 10:00:00 25.6 9 Este 23 Este 0 -- -- 33
2019-05-30 09:00:00 23.2 12 Nordeste 18 Nordeste 0 -- -- 34
2019-05-30 08:00:00 16.9 5 Nordeste 9 Nordeste 0 -- -- 49
2019-05-30 07:00:00 15.1 5 Nordeste 11 Nordeste 0 -- -- 52
2019-05-30 06:00:00 15.5 5 Norte 10 Nordeste 0 -- -- 51
2019-05-30 05:00:00 17.9 0 Calma 10 Nordeste 0 -- -- 47
2019-05-30 04:00:00 19.1 8 Nordeste 17 Nordeste 0 -- -- 44
2019-05-30 03:00:00 19.5 7 Nordeste 15 Nordeste 0 -- -- 43
2019-05-30 02:00:00 20.1 8 Nordeste 12 Nordeste 0 -- -- 40
2019-05-30 01:00:00 21.8 8 Nordeste 14 Nordeste 0 -- -- 36
2019-05-30 00:00:00 22.8 10 Nordeste 17 Norte 0 -- -- 32
2019-05-29 23:00:00 24.6 5 Nordeste 11 Nordeste 0 -- -- 30
2019-05-29 22:00:00 27.4 7 Nordeste 18 Nordeste 0 -- -- 27
2019-05-29 21:00:00 30.5 4 Nordeste 15 Nordeste 0 -- -- 24
2019-05-29 20:00:00 32.8 6 Este 24 Sudeste 0 -- -- 21
2019-05-29 19:00:00 33.1 6 Este 22 Sudeste 0 -- -- 21
2019-05-29 18:00:00 33.1 10 Sudeste 23 Sudeste 0 -- -- 21
2019-05-29 17:00:00 32.9 10 Este 27 Este 0 -- -- 21
2019-05-29 16:00:00 31.6 11 Este 28 Este 0 -- -- 23
2019-05-29 15:00:00 30.6 11 Este 32 Este 0 -- -- 24
2019-05-29 14:00:00 29.5 12 Este 26 Sudeste 0 -- -- 26
2019-05-29 13:00:00 28.4 12 Este 30 Sudeste 0 -- -- 26
2019-05-29 12:00:00 26.7 12 Este 33 Este 0 -- -- 28
2019-05-29 11:00:00 25.9 12 Nordeste 30 Este 0 -- -- 29
2019-05-29 10:00:00 24.2 10 Este 28 Nordeste 0 -- -- 31
2019-05-29 09:00:00 21.9 18 Nordeste 30 Nordeste 0 -- -- 33
2019-05-29 08:00:00 19.1 14 Nordeste 24 Norte 0 -- -- 39
2019-05-29 07:00:00 18.3 9 Nordeste 18 Nordeste 0 -- -- 40
2019-05-29 06:00:00 19 14 Nordeste 22 Nordeste 0 -- -- 38
2019-05-29 05:00:00 18.3 14 Nordeste 24 Norte 0 -- -- 38
2019-05-29 04:00:00 21 17 Nordeste 26 Nordeste 0 -- -- 33
2019-05-29 03:00:00 19.8 15 Norte 19 Nordeste 0 -- -- 35
2019-05-29 02:00:00 18.6 5 Norte 11 Norte 0 -- -- 37
2019-05-29 01:00:00 19.7 8 Norte 15 Norte 0 -- -- 35
2019-05-29 00:00:00 23.2 8 Norte 18 Nordeste 0 -- -- 30
2019-05-28 23:00:00 24.2 15 Norte 19 Norte 0 -- -- 27
2019-05-28 22:00:00 26.4 13 Norte 23 Norte 0 -- -- 23
2019-05-28 21:00:00 30.1 19 Nordeste 32 Norte 0 -- -- 18
2019-05-28 20:00:00 32.6 18 Norte 30 Nordeste 0 -- -- 16
2019-05-28 19:00:00 34.4 16 Norte 36 Norte 0 -- -- 15
2019-05-28 18:00:00 34.5 19 Norte 36 Nordeste 0 -- -- 19
2019-05-28 17:00:00 35.8 16 Norte 32 Norte 0 -- -- 19
2019-05-28 16:00:00 36.1 13 Norte 29 Norte 0 -- -- 22
2019-05-28 15:00:00 34.6 9 Nordeste 26 Nordeste 0 -- -- 24
2019-05-28 14:00:00 32.5 10 Nordeste 21 Este 0 -- -- 28
2019-05-28 13:00:00 31.3 9 Nordeste 22 Nordeste 0 -- -- 30
2019-05-28 12:00:00 28.9 7 Nordeste 20 Norte 0 -- -- 34
2019-05-28 11:00:00 25.1 4 Norte 10 Oeste 0 -- -- 44
2019-05-28 10:00:00 20.4 6 Noroeste 13 Oeste 0 -- -- 60
2019-05-28 09:00:00 17.5 9 Noroeste 14 Noroeste 0 -- -- 71
2019-05-28 08:00:00 14.7 8 Noroeste 17 Norte 0 -- -- 82
2019-05-28 07:00:00 13.8 4 Oeste 10 Noroeste 0 -- -- 84
2019-05-28 06:00:00 15.1 5 Noroeste 11 Noroeste 0 -- -- 79
2019-05-28 05:00:00 15.9 5 Noroeste 13 Oeste 0 -- -- 75
2019-05-28 04:00:00 16.9 8 Noroeste 17 Noroeste 0 -- -- 75
2019-05-28 03:00:00 18 8 Noroeste 17 Oeste 0 -- -- 72
2019-05-28 02:00:00 18.7 5 Noroeste 17 Noroeste 0 -- -- 70
2019-05-28 01:00:00 19.7 9 Noroeste 22 Noroeste 0 -- -- 66
2019-05-28 00:00:00 20.9 10 Oeste 26 Oeste 0 -- -- 62
2019-05-27 23:00:00 22.5 10 Oeste 29 Oeste 0 -- -- 59
2019-05-27 22:00:00 24.6 17 Oeste 33 Noroeste 0 -- -- 52
2019-05-27 21:00:00 27.6 15 Oeste 32 Noroeste 0 -- -- 43
2019-05-27 20:00:00 30.8 19 Noroeste 39 Oeste 0 -- -- 33
2019-05-27 19:00:00 32.2 22 Oeste 39 Oeste 0 -- -- 30
2019-05-27 18:00:00 33.2 20 Noroeste 36 Oeste 0 -- -- 32
2019-05-27 17:00:00 34.1 14 Noroeste 36 Oeste 0 -- -- 27
2019-05-27 16:00:00 34.7 12 Oeste 35 Noroeste 0 -- -- 27
2019-05-27 15:00:00 34 11 Oeste 26 Oeste 0 -- -- 28
2019-05-27 14:00:00 32.6 11 Oeste 27 Noroeste 0 -- -- 26
2019-05-27 13:00:00 32 10 Noroeste 22 Oeste 0 -- -- 29
2019-05-27 12:00:00 30 7 Norte 19 Noroeste 0 -- -- 36
2019-05-27 11:00:00 26.4 8 Norte 17 Noroeste 0 -- -- 44
2019-05-27 10:00:00 22.7 9 Noroeste 18 Noroeste 0 -- -- 53
2019-05-27 09:00:00 19.5 5 Noroeste 15 Noroeste 0 -- -- 65
2019-05-27 08:00:00 16.7 9 Noroeste 18 Noroeste 0 -- -- 74
2019-05-27 07:00:00 15 3 Noroeste 14 Noroeste 0 -- -- 78
2019-05-27 06:00:00 15.6 8 Norte 11 Norte 0 -- -- 73
2019-05-27 05:00:00 16.3 5 Norte 12 Norte 0 -- -- 72
2019-05-27 04:00:00 17.2 7 Norte 10 Noroeste 0 -- -- 67
2019-05-27 03:00:00 17.5 7 Norte 15 Norte 0 -- -- 63
2019-05-27 02:00:00 17.5 10 Norte 15 Norte 0 -- -- 54
2019-05-27 01:00:00 18.6 9 Noroeste 17 Noroeste 0 -- -- 46
2019-05-27 00:00:00 21.3 7 Norte 15 Norte 0 -- -- 37
2019-05-26 23:00:00 24.6 12 Nordeste 19 Norte 0 -- -- 31
2019-05-26 22:00:00 26.8 12 Norte 26 Norte 0 -- -- 28
2019-05-26 21:00:00 30.6 18 Norte 34 Noroeste 0 -- -- 22
2019-05-26 20:00:00 32.8 18 Norte 37 Norte 0 -- -- 19
2019-05-26 19:00:00 33.7 20 Norte 37 Norte 0 -- -- 20
2019-05-26 18:00:00 34.1 23 Nordeste 42 Nordeste 0 -- -- 19
2019-05-26 17:00:00 34.4 18 Nordeste 41 Norte 0 -- -- 20
2019-05-26 16:00:00 34.2 14 Norte 36 Norte 0 -- -- 22
2019-05-26 15:00:00 32.4 14 Nordeste 32 Nordeste 0 -- -- 24
2019-05-26 14:00:00 31.9 14 Norte 27 Noroeste 0 -- -- 24
2019-05-26 13:00:00 30.5 12 Nordeste 25 Norte 0 -- -- 25
2019-05-26 12:00:00 28.9 9 Nordeste 28 Norte 0 -- -- 26
2019-05-26 11:00:00 27 12 Nordeste 23 Norte 0 -- -- 28
2019-05-26 10:00:00 24.4 15 Nordeste 26 Nordeste 0 -- -- 32
2019-05-26 09:00:00 20.2 9 Norte 17 Norte 0 -- -- 40
2019-05-26 08:00:00 14.3 5 Norte 10 Noroeste 0 -- -- 55
2019-05-26 07:00:00 15 6 Oeste 10 Oeste 0 -- -- 52
2019-05-26 06:00:00 15 3 Noroeste 6 Noroeste 0 -- -- 50
2019-05-26 05:00:00 16 0 Calma 11 Nordeste 0 -- -- 48
2019-05-26 04:00:00 16.3 8 Nordeste 15 Norte 0 -- -- 45
2019-05-26 03:00:00 16.7 8 Norte 13 Noroeste 0 -- -- 45
2019-05-26 02:00:00 18.5 8 Noroeste 17 Norte 0 -- -- 42
2019-05-26 01:00:00 19.5 11 Norte 17 Norte 0 -- -- 36
2019-05-26 00:00:00 20.2 13 Nordeste 17 Nordeste 0 -- -- 34